createdAt,value
2023-03-29T00:02:30.536Z,61.34
2023-03-29T00:05:02.246Z,61.67
2023-03-29T00:07:33.559Z,61.53
2023-03-29T00:10:02.711Z,61.63
2023-03-29T00:12:31.407Z,61.81
2023-03-29T00:14:59.347Z,62.03
2023-03-29T00:17:27.338Z,62.14
2023-03-29T00:19:55.508Z,61.85
2023-03-29T00:22:23.456Z,61.87
2023-03-29T00:24:54.610Z,62.10
2023-03-29T00:27:22.644Z,61.92
2023-03-29T00:29:50.790Z,61.78
2023-03-29T00:32:18.925Z,61.72
2023-03-29T00:34:50.962Z,62.05
2023-03-29T00:37:18.941Z,62.09
2023-03-29T00:39:47.134Z,62.10
2023-03-29T00:42:17.278Z,62.75
2023-03-29T00:44:54.351Z,63.04
2023-03-29T00:47:35.217Z,62.82
2023-03-29T00:50:07.024Z,63.14
2023-03-29T00:52:35.859Z,63.41
2023-03-29T00:55:06.084Z,63.49
2023-03-29T00:57:34.110Z,63.09
2023-03-29T01:00:05.185Z,63.18
2023-03-29T01:02:34.834Z,62.91
2023-03-29T01:05:06.685Z,62.98
2023-03-29T01:07:38.939Z,63.27
2023-03-29T01:10:13.040Z,63.27
2023-03-29T01:12:46.854Z,63.12
2023-03-29T01:15:18.874Z,63.49
2023-03-29T01:17:51.041Z,63.60
2023-03-29T01:20:25.303Z,63.32
2023-03-29T01:22:53.140Z,63.50
2023-03-29T01:25:26.790Z,62.87
2023-03-29T01:27:55.055Z,62.86
2023-03-29T01:30:29.983Z,62.45
2023-03-29T01:33:00.428Z,62.70
2023-03-29T01:35:38.780Z,62.63
2023-03-29T01:38:14.017Z,62.30
2023-03-29T01:40:42.661Z,62.66
2023-03-29T01:43:40.004Z,62.47
2023-03-29T01:46:26.799Z,61.89
2023-03-29T01:48:57.139Z,61.25
2023-03-29T01:51:29.524Z,61.15
2023-03-29T01:54:04.776Z,60.96
2023-03-29T01:56:37.023Z,61.21
2023-03-29T01:59:08.540Z,61.30
2023-03-29T02:01:40.584Z,61.02
2023-03-29T02:04:11.485Z,60.76
2023-03-29T02:06:40.063Z,60.59
2023-03-29T02:09:08.242Z,60.39
2023-03-29T02:11:36.527Z,59.82
2023-03-29T02:14:04.497Z,59.96
2023-03-29T02:16:36.920Z,59.85
2023-03-29T02:19:05.548Z,59.81
2023-03-29T02:21:54.042Z,59.74
2023-03-29T02:24:24.015Z,59.57
2023-03-29T02:26:52.818Z,59.47
2023-03-29T02:29:20.771Z,59.55
2023-03-29T02:31:48.686Z,59.83
2023-03-29T02:34:30.873Z,59.73
2023-03-29T02:37:00.970Z,59.92
2023-03-29T02:39:31.815Z,59.85
2023-03-29T02:42:00.700Z,59.98
2023-03-29T02:44:31.354Z,59.96
2023-03-29T02:47:02.405Z,60.19
2023-03-29T02:49:30.949Z,60.39
2023-03-29T02:52:03.320Z,60.50
2023-03-29T02:54:31.622Z,60.84
2023-03-29T02:57:01.220Z,60.76
2023-03-29T02:59:33.683Z,61.00
2023-03-29T03:02:02.107Z,61.35
2023-03-29T03:04:31.371Z,61.58
2023-03-29T03:06:59.430Z,61.73
2023-03-29T03:09:27.526Z,61.98
2023-03-29T03:11:55.730Z,62.30
2023-03-29T03:14:25.496Z,62.50
2023-03-29T03:16:53.456Z,62.81
2023-03-29T03:19:21.843Z,63.14
2023-03-29T03:21:51.239Z,63.43
2023-03-29T03:24:19.307Z,63.58
2023-03-29T03:26:47.590Z,63.23
2023-03-29T03:29:16.342Z,63.75
2023-03-29T03:32:04.419Z,64.83
2023-03-29T03:34:50.958Z,64.99
2023-03-29T03:37:19.719Z,65.19
2023-03-29T03:39:47.778Z,65.57
2023-03-29T03:42:16.235Z,65.86
2023-03-29T03:44:45.599Z,65.97
2023-03-29T03:47:40.217Z,66.10
2023-03-29T03:50:25.121Z,66.95
2023-03-29T03:52:53.607Z,66.42
2023-03-29T03:55:22.284Z,65.87
2023-03-29T03:58:04.186Z,66.10
2023-03-29T04:00:33.490Z,66.21
2023-03-29T04:03:27.770Z,65.90
2023-03-29T04:05:56.051Z,66.07
2023-03-29T04:08:25.840Z,65.93
2023-03-29T04:11:23.112Z,65.84
2023-03-29T04:13:51.798Z,65.92
2023-03-29T04:16:28.689Z,65.73
2023-03-29T04:18:58.672Z,65.61
2023-03-29T04:21:27.594Z,65.27
2023-03-29T04:23:55.658Z,65.33
2023-03-29T04:26:24.049Z,65.06
2023-03-29T04:28:58.158Z,64.51
2023-03-29T04:31:39.978Z,64.54
2023-03-29T04:34:27.288Z,64.00
2023-03-29T04:36:56.604Z,63.84
2023-03-29T04:39:32.135Z,63.60
2023-03-29T04:42:00.296Z,63.00
2023-03-29T04:44:34.181Z,62.72
2023-03-29T04:47:04.323Z,62.22
2023-03-29T04:49:52.375Z,61.71
2023-03-29T04:52:33.436Z,61.37
2023-03-29T04:55:02.566Z,61.08
2023-03-29T04:57:51.364Z,60.95
2023-03-29T05:00:27.244Z,60.99
2023-03-29T05:03:11.720Z,60.82
2023-03-29T05:05:42.352Z,60.69
2023-03-29T05:08:11.037Z,60.54
2023-03-29T05:10:59.214Z,60.50
2023-03-29T05:13:28.265Z,60.18
2023-03-29T05:15:57.297Z,60.82
2023-03-29T05:18:25.735Z,62.06
2023-03-29T05:20:54.422Z,67.52
2023-03-29T05:23:23.816Z,68.34
2023-03-29T05:26:10.761Z,63.71
2023-03-29T05:28:39.559Z,59.30
2023-03-29T05:31:08.821Z,58.37
2023-03-29T05:33:38.608Z,58.46
2023-03-29T05:36:14.048Z,58.45
2023-03-29T05:38:46.818Z,58.39
2023-03-29T05:41:16.172Z,58.49
2023-03-29T05:44:02.874Z,58.64
2023-03-29T05:46:31.054Z,58.62
2023-03-29T05:49:02.556Z,58.57
2023-03-29T05:51:49.467Z,58.31
2023-03-29T05:54:17.597Z,58.14
2023-03-29T05:56:46.197Z,57.81
2023-03-29T05:59:17.723Z,57.90
2023-03-29T06:01:48.875Z,57.20
2023-03-29T06:04:20.881Z,56.82
2023-03-29T06:07:18.431Z,56.59
2023-03-29T06:09:57.735Z,56.30
2023-03-29T06:12:26.323Z,55.68
2023-03-29T06:15:04.953Z,55.68
2023-03-29T06:17:41.625Z,55.90
2023-03-29T06:20:12.565Z,55.18
2023-03-29T06:22:43.394Z,55.32
2023-03-29T06:25:12.492Z,55.02
2023-03-29T06:27:40.750Z,54.78
2023-03-29T06:30:09.370Z,54.47
2023-03-29T06:32:38.263Z,54.40
2023-03-29T06:35:19.622Z,54.87
2023-03-29T06:37:54.598Z,53.96
2023-03-29T06:40:32.366Z,52.91
2023-03-29T06:43:00.636Z,52.69
2023-03-29T06:45:32.799Z,52.43
2023-03-29T06:48:03.300Z,52.16
2023-03-29T06:50:31.810Z,51.71
2023-03-29T06:53:08.899Z,51.70
2023-03-29T06:55:36.873Z,53.71
2023-03-29T06:58:27.563Z,52.28
2023-03-29T07:01:00.493Z,51.06
2023-03-29T07:03:39.485Z,50.19
2023-03-29T07:06:10.414Z,49.08
2023-03-29T07:08:47.202Z,48.89
2023-03-29T07:11:25.810Z,49.21
2023-03-29T07:13:59.120Z,48.95
2023-03-29T07:16:27.418Z,48.83
2023-03-29T07:19:01.590Z,48.86
2023-03-29T07:21:47.790Z,48.92
2023-03-29T07:24:16.880Z,48.84
2023-03-29T07:27:00.282Z,48.06
2023-03-29T07:29:31.139Z,47.55
2023-03-29T07:31:59.096Z,47.24
2023-03-29T07:34:42.363Z,46.86
2023-03-29T07:37:14.211Z,47.95
2023-03-29T07:39:43.311Z,46.38
2023-03-29T07:42:30.314Z,44.70
2023-03-29T07:44:58.826Z,44.99
2023-03-29T07:47:33.142Z,44.65
2023-03-29T07:50:01.710Z,44.51
2023-03-29T07:52:30.527Z,45.33
2023-03-29T07:54:58.976Z,45.08
2023-03-29T07:57:50.474Z,45.57
2023-03-29T08:00:20.275Z,45.55
2023-03-29T08:02:56.094Z,45.75
2023-03-29T08:05:37.963Z,45.94
2023-03-29T08:08:11.599Z,45.33
2023-03-29T08:10:56.534Z,46.60
2023-03-29T08:13:34.292Z,47.31
2023-03-29T08:16:28.651Z,49.71
2023-03-29T08:19:07.287Z,51.42
2023-03-29T08:21:58.967Z,51.85
2023-03-29T08:24:27.454Z,52.70
2023-03-29T08:26:59.028Z,52.94
2023-03-29T08:29:27.711Z,53.12
2023-03-29T08:31:57.400Z,53.11
2023-03-29T08:34:25.874Z,53.05
2023-03-29T08:37:17.394Z,52.98
2023-03-29T08:39:48.659Z,52.44
2023-03-29T08:42:45.098Z,51.87
2023-03-29T08:45:17.464Z,52.04
2023-03-29T08:48:04.705Z,52.08
2023-03-29T08:50:38.990Z,51.55
2023-03-29T08:53:13.095Z,50.19
2023-03-29T08:56:18.691Z,50.01
2023-03-29T08:59:06.716Z,49.87
2023-03-29T09:01:36.430Z,51.48
2023-03-29T09:04:16.574Z,52.05
2023-03-29T09:06:54.572Z,54.12
2023-03-29T09:09:29.405Z,53.99
2023-03-29T09:12:11.525Z,54.14
2023-03-29T09:14:40.702Z,50.48
2023-03-29T09:17:18.301Z,46.77
2023-03-29T09:19:55.389Z,44.70
2023-03-29T09:22:23.464Z,46.24
2023-03-29T09:25:04.053Z,43.84
2023-03-29T09:27:32.592Z,44.30
2023-03-29T09:30:26.074Z,42.28
2023-03-29T09:33:06.272Z,43.07
2023-03-29T09:35:51.674Z,43.36
2023-03-29T09:38:21.611Z,41.69
2023-03-29T09:40:53.952Z,43.12
2023-03-29T09:43:32.100Z,40.67
2023-03-29T09:46:03.562Z,41.17
2023-03-29T09:48:35.033Z,41.83
2023-03-29T09:51:05.466Z,39.78
2023-03-29T09:53:33.597Z,39.87
2023-03-29T09:56:24.812Z,40.23
2023-03-29T09:59:00.771Z,39.46
2023-03-29T10:01:37.284Z,40.50
2023-03-29T10:04:06.731Z,41.36
2023-03-29T10:06:35.595Z,42.07
2023-03-29T10:09:04.832Z,42.11
2023-03-29T10:11:41.914Z,42.11
2023-03-29T10:14:14.391Z,41.49
2023-03-29T10:16:46.879Z,42.04
2023-03-29T10:19:15.301Z,39.85
2023-03-29T10:21:43.225Z,38.14
2023-03-29T10:24:11.586Z,38.00
2023-03-29T10:26:39.564Z,37.63
2023-03-29T10:29:08.445Z,37.91
2023-03-29T10:31:41.762Z,38.29
2023-03-29T10:34:13.028Z,37.85
2023-03-29T10:36:45.160Z,37.72
2023-03-29T10:39:15.683Z,37.08
2023-03-29T10:41:44.865Z,36.71
2023-03-29T10:44:32.785Z,36.01
2023-03-29T10:47:08.786Z,35.86
2023-03-29T10:49:41.140Z,35.39
2023-03-29T10:52:09.637Z,36.81
2023-03-29T10:54:37.600Z,35.68
2023-03-29T10:57:10.469Z,36.37
2023-03-29T10:59:45.322Z,37.35
2023-03-29T11:02:13.148Z,36.48
2023-03-29T11:04:44.229Z,35.85
2023-03-29T11:07:31.533Z,36.48
2023-03-29T11:10:04.245Z,35.40
2023-03-29T11:12:32.082Z,35.03
2023-03-29T11:15:19.310Z,34.99
2023-03-29T11:18:05.786Z,35.21
2023-03-29T11:20:33.787Z,35.56
2023-03-29T11:23:27.665Z,36.68
2023-03-29T11:26:09.972Z,36.26
2023-03-29T11:28:50.062Z,35.40
2023-03-29T11:31:21.528Z,34.26
2023-03-29T11:34:01.744Z,33.93
2023-03-29T11:36:44.892Z,34.23
2023-03-29T11:39:42.521Z,35.11
2023-03-29T11:42:29.543Z,34.75
2023-03-29T11:44:58.767Z,34.48
2023-03-29T11:47:30.636Z,34.29
2023-03-29T11:50:07.985Z,33.04
2023-03-29T11:52:36.191Z,32.31
2023-03-29T11:55:11.526Z,33.01
2023-03-29T11:57:39.574Z,32.72
2023-03-29T12:00:07.758Z,32.87
2023-03-29T12:02:48.326Z,31.81
2023-03-29T12:05:34.926Z,31.98
2023-03-29T12:08:09.342Z,33.85
2023-03-29T12:10:40.598Z,32.59
2023-03-29T12:13:14.418Z,32.93
2023-03-29T12:15:44.413Z,32.45
2023-03-29T12:18:38.599Z,32.62
2023-03-29T12:21:12.431Z,31.25
2023-03-29T12:23:41.801Z,31.75
2023-03-29T12:26:24.603Z,32.34
2023-03-29T12:28:58.747Z,32.00
2023-03-29T12:31:32.653Z,32.81
2023-03-29T12:34:10.648Z,32.10
2023-03-29T12:36:57.456Z,32.05
2023-03-29T12:39:44.327Z,29.28
2023-03-29T12:42:31.085Z,28.69
2023-03-29T12:45:19.855Z,28.81
2023-03-29T12:47:50.326Z,29.53
2023-03-29T12:50:32.481Z,29.10
2023-03-29T12:53:16.833Z,28.31
2023-03-29T12:55:44.794Z,29.41
2023-03-29T12:58:41.643Z,29.84
2023-03-29T13:01:22.871Z,29.81
2023-03-29T13:03:52.352Z,29.91
2023-03-29T13:06:28.691Z,29.72
2023-03-29T13:09:05.123Z,28.23
2023-03-29T13:11:41.522Z,28.37
2023-03-29T13:14:20.348Z,26.63
2023-03-29T13:16:48.325Z,26.18
2023-03-29T13:19:36.155Z,27.91
2023-03-29T13:22:04.224Z,25.53
2023-03-29T13:24:32.092Z,25.44
2023-03-29T13:27:10.188Z,25.56
2023-03-29T13:30:04.794Z,24.41
2023-03-29T13:32:32.777Z,25.46
2023-03-29T13:35:15.890Z,24.80
2023-03-29T13:37:44.270Z,25.58
2023-03-29T13:40:30.670Z,23.87
2023-03-29T13:42:59.994Z,21.99
2023-03-29T13:45:30.503Z,23.30
2023-03-29T13:48:24.609Z,23.97
2023-03-29T13:51:12.729Z,23.92
2023-03-29T13:53:44.263Z,23.53
2023-03-29T13:56:17.366Z,23.17
2023-03-29T13:58:51.378Z,21.95
2023-03-29T14:01:26.126Z,21.98
2023-03-29T14:03:55.838Z,21.65
2023-03-29T14:06:29.522Z,21.41
2023-03-29T14:08:59.849Z,21.10
2023-03-29T14:11:29.242Z,23.80
2023-03-29T14:14:01.747Z,23.25
2023-03-29T14:16:31.763Z,20.67
2023-03-29T14:19:00.423Z,21.03
2023-03-29T14:21:28.297Z,22.24
2023-03-29T14:23:58.933Z,21.63
2023-03-29T14:26:30.888Z,20.99
2023-03-29T14:29:01.435Z,21.02
2023-03-29T14:31:36.804Z,21.39
2023-03-29T14:34:06.780Z,20.80
2023-03-29T14:36:35.037Z,21.10
2023-03-29T14:39:05.785Z,21.93
2023-03-29T14:41:35.824Z,22.16
2023-03-29T14:44:05.919Z,22.28
2023-03-29T14:46:34.678Z,22.92
2023-03-29T14:49:02.971Z,22.70
2023-03-29T14:51:31.375Z,23.77
2023-03-29T14:54:00.330Z,23.63
2023-03-29T14:56:29.358Z,26.02
2023-03-29T14:58:57.741Z,24.92
2023-03-29T15:01:27.208Z,22.67
2023-03-29T15:04:09.254Z,22.87
2023-03-29T15:06:39.477Z,22.06
2023-03-29T15:09:13.161Z,21.39
2023-03-29T15:11:41.333Z,21.67
2023-03-29T15:14:14.420Z,20.84
2023-03-29T15:16:43.951Z,21.45
2023-03-29T15:19:16.302Z,21.65
2023-03-29T15:21:44.861Z,21.59
2023-03-29T15:24:42.351Z,22.48
2023-03-29T15:27:14.823Z,22.87
2023-03-29T15:29:43.820Z,25.68
2023-03-29T15:32:33.842Z,25.41
2023-03-29T15:35:03.046Z,23.93
2023-03-29T15:37:31.211Z,23.78
2023-03-29T15:39:59.537Z,23.32
2023-03-29T15:42:27.729Z,23.01
2023-03-29T15:44:56.531Z,23.15
2023-03-29T15:47:24.664Z,22.71
2023-03-29T15:49:53.173Z,23.07
2023-03-29T15:52:21.658Z,23.14
2023-03-29T15:54:49.625Z,22.80
2023-03-29T15:57:17.998Z,22.11
2023-03-29T15:59:46.487Z,22.04
2023-03-29T16:02:16.563Z,21.81
2023-03-29T16:04:44.780Z,22.26
2023-03-29T16:07:17.255Z,22.40
2023-03-29T16:09:46.377Z,23.47
2023-03-29T16:12:16.470Z,23.37
2023-03-29T16:14:44.433Z,24.01
2023-03-29T16:17:12.509Z,24.44
2023-03-29T16:19:40.622Z,24.23
2023-03-29T16:22:08.481Z,24.93
2023-03-29T16:24:36.507Z,25.40
2023-03-29T16:27:04.828Z,25.89
2023-03-29T16:29:33.089Z,26.44
2023-03-29T16:32:01.264Z,26.72
2023-03-29T16:34:30.245Z,26.80
2023-03-29T16:36:58.312Z,27.37
2023-03-29T16:39:26.399Z,27.53
2023-03-29T16:41:54.457Z,27.57
2023-03-29T16:44:23.907Z,27.62
2023-03-29T16:46:58.014Z,28.16
2023-03-29T16:49:26.457Z,28.52
2023-03-29T16:51:54.316Z,28.94
2023-03-29T16:54:25.908Z,29.56
2023-03-29T16:56:54.014Z,30.04
2023-03-29T16:59:22.536Z,30.66
2023-03-29T17:01:50.835Z,36.69
2023-03-29T17:04:19.017Z,39.82
2023-03-29T17:06:47.251Z,37.83
2023-03-29T17:09:17.017Z,34.68
2023-03-29T17:11:45.267Z,34.08
2023-03-29T17:14:13.618Z,34.36
2023-03-29T17:16:41.635Z,35.02
2023-03-29T17:19:09.622Z,35.21
2023-03-29T17:21:39.872Z,35.40
2023-03-29T17:24:08.142Z,35.15
2023-03-29T17:26:36.063Z,35.59
2023-03-29T17:29:04.712Z,36.16
2023-03-29T17:31:34.978Z,36.23
2023-03-29T17:34:03.633Z,36.78
2023-03-29T17:36:33.851Z,36.59
2023-03-29T17:39:02.930Z,36.47
2023-03-29T17:41:31.322Z,36.42
2023-03-29T17:44:02.262Z,37.64
2023-03-29T17:46:30.372Z,37.28
2023-03-29T17:49:00.465Z,37.75
2023-03-29T17:51:28.620Z,38.26
2023-03-29T17:53:57.308Z,38.12
2023-03-29T17:56:26.525Z,38.02
2023-03-29T17:58:54.691Z,37.78
2023-03-29T18:01:22.610Z,38.91
2023-03-29T18:03:50.925Z,39.19
2023-03-29T18:06:20.740Z,38.73
2023-03-29T18:08:48.535Z,39.22
2023-03-29T18:11:22.295Z,39.18
2023-03-29T18:13:51.356Z,39.90
2023-03-29T18:16:20.215Z,39.84
2023-03-29T18:18:48.890Z,42.41
2023-03-29T18:21:17.164Z,43.94
2023-03-29T18:23:47.068Z,42.94
2023-03-29T18:26:17.209Z,42.09
2023-03-29T18:28:48.849Z,41.17
2023-03-29T18:31:17.149Z,40.59
2023-03-29T18:33:45.307Z,39.90
2023-03-29T18:36:13.811Z,40.00
2023-03-29T18:38:43.815Z,40.05
2023-03-29T18:41:13.050Z,40.33
2023-03-29T18:43:41.589Z,40.74
2023-03-29T18:46:09.588Z,41.28
2023-03-29T18:48:41.317Z,41.49
2023-03-29T18:51:10.616Z,41.63
2023-03-29T18:53:39.407Z,41.62
2023-03-29T18:56:08.176Z,42.69
2023-03-29T18:58:36.375Z,43.43
2023-03-29T19:01:05.304Z,43.36
2023-03-29T19:03:34.758Z,42.94
2023-03-29T19:06:03.868Z,43.16
2023-03-29T19:08:33.164Z,42.77
2023-03-29T19:11:02.257Z,43.38
2023-03-29T19:13:30.238Z,44.08
2023-03-29T19:15:58.456Z,44.09
2023-03-29T19:18:26.577Z,44.47
2023-03-29T19:20:55.367Z,45.23
2023-03-29T19:23:26.043Z,45.11
2023-03-29T19:25:58.893Z,45.41
2023-03-29T19:28:27.683Z,45.82
2023-03-29T19:30:56.518Z,46.30
2023-03-29T19:33:24.538Z,46.88
2023-03-29T19:35:52.864Z,46.92
2023-03-29T19:38:21.448Z,47.37
2023-03-29T19:40:50.686Z,47.61
2023-03-29T19:43:18.872Z,48.02
2023-03-29T19:45:48.056Z,48.24
2023-03-29T19:48:22.483Z,48.22
2023-03-29T19:50:51.573Z,48.49
2023-03-29T19:53:19.539Z,48.89
2023-03-29T19:55:48.944Z,49.21
2023-03-29T19:58:16.914Z,49.14
2023-03-29T20:00:44.885Z,49.11
2023-03-29T20:03:14.101Z,49.53
2023-03-29T20:05:42.564Z,49.71
2023-03-29T20:08:10.427Z,49.54
2023-03-29T20:10:38.361Z,50.04
2023-03-29T20:13:06.839Z,49.66
2023-03-29T20:15:35.093Z,48.56
2023-03-29T20:18:03.677Z,49.35
2023-03-29T20:20:31.993Z,49.51
2023-03-29T20:23:04.749Z,49.61
2023-03-29T20:25:35.744Z,49.81
2023-03-29T20:28:04.905Z,49.97
2023-03-29T20:30:33.105Z,50.08
2023-03-29T20:33:01.243Z,50.96
2023-03-29T20:35:29.307Z,51.18
2023-03-29T20:37:57.328Z,51.47
2023-03-29T20:40:26.528Z,51.62
2023-03-29T20:42:54.608Z,51.55
2023-03-29T20:45:22.500Z,52.00
2023-03-29T20:47:56.335Z,52.19
2023-03-29T20:50:30.311Z,52.35
2023-03-29T20:53:02.420Z,52.68
2023-03-29T20:55:33.186Z,52.93
2023-03-29T20:58:01.871Z,53.03
2023-03-29T21:00:30.907Z,53.33
2023-03-29T21:02:59.142Z,53.36
2023-03-29T21:05:28.458Z,53.22
2023-03-29T21:07:57.125Z,53.88
2023-03-29T21:10:26.047Z,54.14
2023-03-29T21:13:00.507Z,54.12
2023-03-29T21:15:30.812Z,54.31
2023-03-29T21:17:59.130Z,54.11
2023-03-29T21:20:27.778Z,54.31
2023-03-29T21:22:56.130Z,54.34
2023-03-29T21:25:24.088Z,54.29
2023-03-29T21:27:51.970Z,53.96
2023-03-29T21:30:20.131Z,54.25
2023-03-29T21:32:47.985Z,54.46
2023-03-29T21:35:16.156Z,54.61
2023-03-29T21:37:44.131Z,53.17
2023-03-29T21:40:12.723Z,54.50
2023-03-29T21:42:40.777Z,54.97
2023-03-29T21:45:09.156Z,54.95
2023-03-29T21:47:37.168Z,54.97
2023-03-29T21:50:06.022Z,55.29
2023-03-29T21:52:33.985Z,55.79
2023-03-29T21:55:02.063Z,56.12
2023-03-29T21:57:29.921Z,56.00
2023-03-29T21:59:58.010Z,56.15
2023-03-29T22:02:26.007Z,56.19
2023-03-29T22:04:54.048Z,56.13
2023-03-29T22:07:26.614Z,56.35
2023-03-29T22:09:54.812Z,56.65
2023-03-29T22:12:22.965Z,56.68
2023-03-29T22:14:50.942Z,56.84
2023-03-29T22:17:18.915Z,57.04
2023-03-29T22:19:47.608Z,57.23
2023-03-29T22:22:16.496Z,56.90
2023-03-29T22:24:44.457Z,57.01
2023-03-29T22:27:12.433Z,57.41
2023-03-29T22:29:40.401Z,57.65
2023-03-29T22:32:08.525Z,57.67
2023-03-29T22:34:36.841Z,57.70
2023-03-29T22:37:05.488Z,57.86
2023-03-29T22:39:36.980Z,57.79
2023-03-29T22:42:05.068Z,58.24
2023-03-29T22:44:34.029Z,58.43
2023-03-29T22:47:02.026Z,58.67
2023-03-29T22:49:29.981Z,59.01
2023-03-29T22:51:58.165Z,59.06
2023-03-29T22:54:27.357Z,59.11
2023-03-29T22:56:55.967Z,59.22
2023-03-29T22:59:25.274Z,59.21
2023-03-29T23:01:53.181Z,59.23
2023-03-29T23:04:21.534Z,59.20
2023-03-29T23:06:49.661Z,59.34
2023-03-29T23:09:17.635Z,59.56
2023-03-29T23:11:45.548Z,59.35
2023-03-29T23:14:14.899Z,59.04
2023-03-29T23:16:42.775Z,59.68
2023-03-29T23:19:10.639Z,59.64
2023-03-29T23:21:38.469Z,59.45
2023-03-29T23:24:07.303Z,59.46
2023-03-29T23:26:35.879Z,59.52
2023-03-29T23:29:04.569Z,59.83
2023-03-29T23:31:33.954Z,60.11
2023-03-29T23:34:03.472Z,60.50
2023-03-29T23:36:31.750Z,60.37
2023-03-29T23:39:00.428Z,60.08
2023-03-29T23:41:28.511Z,60.46
2023-03-29T23:43:57.812Z,60.88
2023-03-29T23:46:26.221Z,60.74
2023-03-29T23:48:54.260Z,60.70
2023-03-29T23:51:23.387Z,60.70
2023-03-29T23:53:51.986Z,60.39
2023-03-29T23:56:21.769Z,60.62
2023-03-29T23:58:50.020Z,60.56
